National Weather Service Raw Text Product

Displaying AFOS PIL: TAFFOD Received: 2017-11-15 05:01 UTC


373 
FTUS43 KDMX 150501 AAC
TAFFOD
TAF AMD
KFOD 150501Z 1505/1524 22007KT P6SM BKN004 OVC011
     FM150800 27008KT P6SM OVC011
     FM151100 30011KT P6SM BKN045
     FM151400 31013G19KT P6SM FEW050=